Terminal Aerodrome Forecast
Issued by NWS

Home | Current Version | Previous Version | Text Only | Print | Product List | Glossary On
Versions: 1 2 3 4 5 6 7 8 9 10 11 12 13 14 15 16 17 18 19 20 21 22 23 24 25 26 27 28 29 30 31 32 33 34 35 36 37 38 39 40
000
FTUS43 KMKX 212327
TAFENW
TAF
KENW 212327Z 2200/2224 20007KT P6SM SCT030 BKN150
     FM220400 22009KT P6SM SHRA SCT030 BKN090
      TEMPO 2204/2207 3SM TSRA BKN030CB
     FM220800 24009KT P6SM VCSH SCT030
     FM221100 24009KT P6SM VCSH OVC030
     FM221500 29011KT P6SM BKN035
     FM221700 32013G21KT P6SM SCT050=

USA.gov is the U.S. government's official web portal to all federal, state and local government web resources and services.